Classifiche di sempre
Migliori tempi personali validi di team tra tutti gli eventi e le stagioni. Ogni team compare una sola volta per divisione.
Cerca per nome e apri la pagina in cui è classificato questo record di divisione.
133,335 team in classifica
| Pos. | Pos. AG | Team | Nazionalità | Categoria età | TempoMiglior tempo | Distacco |
|---|---|---|---|---|---|---|
| 123951 | -- | Scott WOOLLARD & Beth HORSFIELDGBR · X XU29 | GBR | X XU29 | 1:48:20 | +59:07 |
| 123952 | #43772 | Emilie Vith Andersen & Jesper AndersenDEN · X 30-34 · AG #43772 | DEN | X 30-34 | 1:48:20 | +59:07 |
| 123953 | -- | Max Lam & Gwendelyn OngSIN · X XU29 | SIN | X XU29 | 1:48:20 | +59:07 |
| 123954 | #2750 | Brian Keogh & CarolAnne KeoghGBR · X 50-54 · AG #2750 | GBR | X 50-54 | 1:48:20 | +59:07 |
| 123955 | #18944 | 淑飞 张 & 迓曦 杨CHN · X 25-29 · AG #18944 | CHN | X 25-29 | 1:48:20 | +59:07 |
| 123956 | #15231 | Shabeena Iman & Suffian MohamedSIN · X 35-39 · AG #15231 | SIN | X 35-39 | 1:48:20 | +59:07 |
| 123957 | #4074 | Raimond Müller & Deborah BorkowskiGER · X 45-49 · AG #4074 | GER | X 45-49 | 1:48:21 | +59:08 |
| 123958 | #16545 | Claudia Mulder-Tettero & Hans MulderNED · X 40-44 · AG #16545 | NED | X 40-44 | 1:48:21 | +59:08 |
| 123959 | #15232 | Yasmin Crespi & Daniel SolaESP · X 35-39 · AG #15232 | ESP | X 35-39 | 1:48:21 | +59:08 |
| 123960 | #43773 | Robin Sternkiker & Vivien ThielGER · X 30-34 · AG #43773 | GER | X 30-34 | 1:48:21 | +59:08 |
| 123961 | #15233 | Alvaro Cruz & Cristina SantanoESP · X 35-39 · AG #15233 | ESP | X 35-39 | 1:48:21 | +59:08 |
| 123962 | #16546 | Qiu Yan Tan & Peng Kee ChooSIN · X 40-44 · AG #16546 | SIN | X 40-44 | 1:48:21 | +59:08 |
| 123963 | #8409 | Madeline Spencer & Jack ForrestAUS · X 16-24 · AG #8409 | AUS | X 16-24 | 1:48:21 | +59:08 |
| 123964 | -- | Kenno Scheepers & Anouk BrounsNED · X XU29 | NED | X XU29 | 1:48:21 | +59:08 |
| 123965 | #43774 | Isaí Ochoa López & Karen Alondra De la Fuente VeraMEX · X 30-34 · AG #43774 | MEX | X 30-34 | 1:48:21 | +59:08 |
| 123966 | #2751 | Sean SALINGER & Helen POTTSGBR · X 50-54 · AG #2751 | GBR | X 50-54 | 1:48:21 | +59:08 |
| 123967 | #43775 | Elvis Lam & Crystal NgaiHKG · X 30-34 · AG #43775 | HKG | X 30-34 | 1:48:21 | +59:08 |
| 123968 | #1274 | Elizabeth Roarke & Brad KozeraUSA · X 30-39 · AG #1274 | USA | X 30-39 | 1:48:21 | +59:08 |
| 123969 | #43776 | Allie Meng & James da costaUSA · X 30-34 · AG #43776 | USA | X 30-34 | 1:48:21 | +59:08 |
| 123970 | #4075 | Rufino Vegamora & Jacqueline VegamoraX 45-49 · AG #4075 | -- | X 45-49 | 1:48:21 | +59:08 |
| 123971 | #15234 | Yunyin Debbie Lin & Yeow Yong LohSIN · X 35-39 · AG #15234 | SIN | X 35-39 | 1:48:21 | +59:08 |
| 123972 | #8410 | Yasmin Kouros & Randy DuflooNED · X 16-24 · AG #8410 | NED | X 16-24 | 1:48:21 | +59:08 |
| 123973 | #8411 | Randy Dufloo & Yasmin KourosNED · X 16-24 · AG #8411 | NED | X 16-24 | 1:48:21 | +59:08 |
| 123974 | #15235 | Ibs Loyola & Isaac LoyolaNZL · X 35-39 · AG #15235 | NZL | X 35-39 | 1:48:22 | +59:09 |
| 123975 | #22 | Ray Carter & Denise EustaceGBR · X 65-69 · AG #22 | GBR | X 65-69 | 1:48:22 | +59:09 |
Pagina 4,959 di 5,334